createdAt,value
2019-05-29T00:00:40.623Z,12.63
2019-05-29T00:03:19.333Z,16.07
2019-05-29T00:05:56.752Z,12.43
2019-05-29T00:08:33.915Z,17.50
2019-05-29T00:11:12.672Z,18.03
2019-05-29T00:13:49.803Z,15.67
2019-05-29T00:16:26.917Z,22.17
2019-05-29T00:19:04.036Z,17.20
2019-05-29T00:21:41.176Z,16.63
2019-05-29T00:24:18.270Z,17.87
2019-05-29T00:26:55.291Z,17.20
2019-05-29T00:29:32.374Z,16.77
2019-05-29T00:32:09.478Z,19.73
2019-05-29T00:34:46.590Z,18.07
2019-05-29T00:37:23.683Z,19.87
2019-05-29T00:40:00.782Z,19.13
2019-05-29T00:42:37.912Z,17.30
2019-05-29T00:45:15.620Z,15.00
2019-05-29T00:47:55.827Z,17.73
2019-05-29T00:50:33.012Z,14.73
2019-05-29T00:53:10.199Z,17.40
2019-05-29T00:55:47.276Z,20.43
2019-05-29T00:58:24.318Z,22.00
2019-05-29T01:01:01.499Z,21.93
2019-05-29T01:03:38.689Z,19.37
2019-05-29T01:06:16.098Z,17.93
2019-05-29T01:08:53.179Z,23.93
2019-05-29T01:11:30.391Z,22.73
2019-05-29T01:14:07.502Z,20.40
2019-05-29T01:16:44.566Z,22.50
2019-05-29T01:19:23.322Z,20.57
2019-05-29T01:22:00.431Z,18.03
2019-05-29T01:24:37.558Z,25.97
2019-05-29T01:27:15.121Z,20.80
2019-05-29T01:29:54.019Z,21.67
2019-05-29T01:32:31.775Z,25.00
2019-05-29T01:35:09.583Z,23.20
2019-05-29T01:37:47.614Z,23.70
2019-05-29T01:40:29.114Z,22.03
2019-05-29T01:43:04.209Z,26.57
2019-05-29T01:45:41.313Z,22.73
2019-05-29T01:48:19.289Z,24.17
2019-05-29T01:50:56.626Z,30.03
2019-05-29T01:53:33.654Z,26.80
2019-05-29T01:56:10.774Z,24.30
2019-05-29T01:58:47.905Z,21.13
2019-05-29T02:01:28.216Z,25.33
2019-05-29T02:04:06.659Z,22.23
2019-05-29T02:06:44.132Z,26.73
2019-05-29T02:09:22.125Z,26.07
2019-05-29T02:12:02.302Z,27.77
2019-05-29T02:14:41.850Z,27.10
2019-05-29T02:17:19.733Z,26.47
2019-05-29T02:19:57.085Z,36.77
2019-05-29T02:22:48.415Z,25.77
2019-05-29T02:25:27.923Z,23.47
2019-05-29T02:28:05.723Z,26.73
2019-05-29T02:30:42.810Z,22.17
2019-05-29T02:33:21.729Z,25.93
2019-05-29T02:35:58.644Z,27.70
2019-05-29T02:38:35.736Z,19.50
2019-05-29T02:41:12.870Z,19.63
2019-05-29T02:43:49.962Z,24.70
2019-05-29T02:46:28.609Z,20.13
2019-05-29T02:49:05.817Z,19.90
2019-05-29T02:51:42.885Z,22.57
2019-05-29T02:54:20.436Z,23.60
2019-05-29T02:56:57.651Z,21.07
2019-05-29T02:59:34.767Z,19.07
2019-05-29T03:02:11.907Z,21.03
2019-05-29T03:04:49.014Z,16.03
2019-05-29T03:07:26.418Z,17.77
2019-05-29T03:10:05.674Z,20.00
2019-05-29T03:12:42.765Z,16.23
2019-05-29T03:15:19.873Z,16.60
2019-05-29T03:17:57.064Z,11.07
2019-05-29T03:20:36.560Z,14.97
2019-05-29T03:23:13.689Z,21.03
2019-05-29T03:25:50.786Z,15.93
2019-05-29T03:28:27.812Z,15.73
2019-05-29T03:31:04.929Z,17.90
2019-05-29T03:33:48.933Z,19.87
2019-05-29T03:36:20.813Z,17.93
2019-05-29T03:38:57.879Z,14.13
2019-05-29T03:41:35.003Z,14.37
2019-05-29T03:44:13.952Z,16.30
2019-05-29T03:46:51.047Z,13.13
2019-05-29T03:49:29.154Z,13.50
2019-05-29T03:52:06.775Z,14.07
2019-05-29T03:54:43.879Z,12.67
2019-05-29T03:57:20.987Z,10.57
2019-05-29T03:59:58.079Z,10.50
2019-05-29T04:02:35.540Z,10.10
2019-05-29T04:05:13.914Z,8.80
2019-05-29T04:07:51.014Z,9.70
2019-05-29T04:10:31.733Z,12.03
2019-05-29T04:13:08.319Z,6.17
2019-05-29T04:15:45.416Z,8.07
2019-05-29T04:18:22.522Z,12.70
2019-05-29T04:21:00.501Z,16.57
2019-05-29T04:23:38.253Z,8.37
2019-05-29T04:26:15.567Z,8.70
2019-05-29T04:28:52.719Z,9.03
2019-05-29T04:31:30.029Z,11.50
2019-05-29T04:34:07.077Z,10.83
2019-05-29T04:36:44.190Z,9.57
2019-05-29T04:39:21.273Z,8.83
2019-05-29T04:41:58.381Z,9.17
2019-05-29T04:44:36.397Z,7.77
2019-05-29T04:47:14.304Z,5.60
2019-05-29T04:49:51.535Z,7.57
2019-05-29T04:52:29.122Z,7.13
2019-05-29T04:55:09.470Z,6.90
2019-05-29T04:57:50.760Z,7.23
2019-05-29T05:00:30.913Z,8.67
2019-05-29T05:03:08.354Z,10.33
2019-05-29T05:05:45.343Z,5.07
2019-05-29T05:08:23.955Z,9.67
2019-05-29T05:11:01.130Z,8.77
2019-05-29T05:13:38.406Z,8.43
2019-05-29T05:16:15.537Z,10.13
2019-05-29T05:18:52.662Z,8.63
2019-05-29T05:21:29.915Z,6.53
2019-05-29T05:24:06.971Z,10.77
2019-05-29T05:26:44.101Z,5.70
2019-05-29T05:29:21.230Z,7.07
2019-05-29T05:32:00.044Z,6.73
2019-05-29T05:34:37.145Z,8.67
2019-05-29T05:37:14.236Z,6.93
2019-05-29T05:39:51.338Z,11.37
2019-05-29T05:42:31.065Z,6.93
2019-05-29T05:45:08.322Z,6.80
2019-05-29T05:47:57.069Z,11.00
2019-05-29T05:50:24.275Z,6.60
2019-05-29T05:53:01.691Z,10.57
2019-05-29T05:55:39.915Z,6.87
2019-05-29T05:58:17.086Z,7.67
2019-05-29T06:00:54.225Z,7.30
2019-05-29T06:03:31.819Z,6.03
2019-05-29T06:06:11.941Z,6.77
2019-05-29T06:08:52.461Z,7.70
2019-05-29T06:11:29.913Z,8.27
2019-05-29T06:14:07.037Z,5.67
2019-05-29T06:16:46.141Z,8.37
2019-05-29T06:19:26.745Z,6.90
2019-05-29T06:22:03.966Z,9.40
2019-05-29T06:24:41.083Z,6.37
2019-05-29T06:27:18.148Z,7.17
2019-05-29T06:29:55.294Z,6.60
2019-05-29T06:32:41.637Z,7.63
2019-05-29T06:35:21.567Z,7.93
2019-05-29T06:37:58.668Z,10.63
2019-05-29T06:40:38.300Z,5.93
2019-05-29T06:43:23.310Z,6.83
2019-05-29T06:46:02.271Z,7.93
2019-05-29T06:48:57.615Z,7.27
2019-05-29T06:51:24.752Z,6.03
2019-05-29T06:54:03.122Z,6.60
2019-05-29T06:56:40.286Z,8.00
2019-05-29T06:59:17.396Z,9.23
2019-05-29T07:01:54.666Z,4.93
2019-05-29T07:04:31.977Z,8.70
2019-05-29T07:07:09.130Z,5.90
2019-05-29T07:09:47.185Z,7.73
2019-05-29T07:12:24.341Z,6.13
2019-05-29T07:15:01.430Z,5.93
2019-05-29T07:17:38.692Z,11.00
2019-05-29T07:20:15.825Z,9.20
2019-05-29T07:22:52.937Z,6.53
2019-05-29T07:25:30.646Z,7.80
2019-05-29T07:28:07.795Z,9.57
2019-05-29T07:30:53.826Z,5.10
2019-05-29T07:33:24.414Z,7.60
2019-05-29T07:36:01.521Z,4.70
2019-05-29T07:38:39.754Z,9.57
2019-05-29T07:41:18.259Z,7.23
2019-05-29T07:43:55.422Z,5.17
2019-05-29T07:46:32.525Z,7.10
2019-05-29T07:49:09.642Z,9.57
2019-05-29T07:51:46.983Z,9.07
2019-05-29T07:54:24.270Z,5.57
2019-05-29T07:57:01.362Z,9.60
2019-05-29T07:59:38.614Z,6.17
2019-05-29T08:02:17.899Z,8.03
2019-05-29T08:04:55.012Z,7.20
2019-05-29T08:07:32.112Z,8.10
2019-05-29T08:10:09.230Z,5.07
2019-05-29T08:12:51.187Z,7.40
2019-05-29T08:15:25.655Z,5.77
2019-05-29T08:18:02.776Z,5.87
2019-05-29T08:20:39.906Z,5.47
2019-05-29T08:23:17.054Z,7.73
2019-05-29T08:25:54.166Z,6.13
2019-05-29T08:28:31.870Z,5.53
2019-05-29T08:31:09.053Z,4.63
2019-05-29T08:33:46.812Z,5.80
2019-05-29T08:36:23.889Z,6.67
2019-05-29T08:39:01.004Z,5.80
2019-05-29T08:41:38.139Z,4.80
2019-05-29T08:44:15.360Z,6.40
2019-05-29T08:47:09.094Z,6.00
2019-05-29T08:49:31.202Z,8.23
2019-05-29T08:52:12.348Z,5.33
2019-05-29T08:54:48.077Z,5.13
2019-05-29T08:57:25.404Z,5.07
2019-05-29T09:00:02.566Z,6.03
2019-05-29T09:02:39.678Z,4.57
2019-05-29T09:05:16.778Z,4.97
2019-05-29T09:07:56.806Z,4.90
2019-05-29T09:10:41.415Z,5.90
2019-05-29T09:13:18.512Z,5.80
2019-05-29T09:16:00.212Z,5.57
2019-05-29T09:18:37.335Z,6.13
2019-05-29T09:21:15.702Z,7.13
2019-05-29T09:23:53.177Z,5.13
2019-05-29T09:26:30.289Z,7.53
2019-05-29T09:29:07.408Z,4.50
2019-05-29T09:31:44.522Z,3.70
2019-05-29T09:34:22.714Z,5.97
2019-05-29T09:36:59.951Z,5.03
2019-05-29T09:39:37.025Z,4.80
2019-05-29T09:42:19.171Z,3.70
2019-05-29T09:44:56.310Z,6.07
2019-05-29T09:47:33.434Z,5.63
2019-05-29T09:50:10.531Z,3.70
2019-05-29T09:52:47.662Z,5.37
2019-05-29T09:55:24.773Z,4.20
2019-05-29T09:58:02.744Z,2.50
2019-05-29T10:00:39.891Z,7.77
2019-05-29T10:03:17.040Z,4.87
2019-05-29T10:05:54.668Z,6.23
2019-05-29T10:08:32.870Z,5.33
2019-05-29T10:11:10.981Z,5.27
2019-05-29T10:13:48.504Z,3.13
2019-05-29T10:16:25.673Z,5.07
2019-05-29T10:19:03.242Z,4.77
2019-05-29T10:21:41.532Z,4.83
2019-05-29T10:24:18.693Z,5.33
2019-05-29T10:26:57.179Z,7.20
2019-05-29T10:29:34.559Z,6.87
2019-05-29T10:32:14.648Z,5.03
2019-05-29T10:34:52.702Z,4.77
2019-05-29T10:37:29.855Z,5.00
2019-05-29T10:40:08.322Z,3.30
2019-05-29T10:42:46.896Z,5.87
2019-05-29T10:45:24.439Z,5.50
2019-05-29T10:48:01.514Z,4.60
2019-05-29T10:50:38.633Z,6.10
2019-05-29T10:53:15.748Z,3.47
2019-05-29T10:55:52.852Z,5.67
2019-05-29T10:58:29.967Z,4.23
2019-05-29T11:01:07.019Z,5.30
2019-05-29T11:03:45.462Z,4.07
2019-05-29T11:06:23.628Z,4.77
2019-05-29T11:09:00.740Z,6.57
2019-05-29T11:11:37.829Z,5.57
2019-05-29T11:14:15.059Z,5.50
2019-05-29T11:16:53.357Z,5.27
2019-05-29T11:19:30.530Z,3.30
2019-05-29T11:22:25.146Z,4.83
2019-05-29T11:24:47.862Z,6.93
2019-05-29T11:27:26.158Z,6.50
2019-05-29T11:30:03.726Z,4.27
2019-05-29T11:32:41.244Z,5.17
2019-05-29T11:35:18.334Z,6.10
2019-05-29T11:37:56.493Z,6.87
2019-05-29T11:40:33.837Z,5.03
2019-05-29T11:43:11.090Z,5.33
2019-05-29T11:45:48.225Z,4.67
2019-05-29T11:48:28.603Z,9.13
2019-05-29T11:51:05.642Z,4.20
2019-05-29T11:53:42.757Z,6.03
2019-05-29T11:56:20.578Z,3.00
2019-05-29T11:58:58.999Z,3.17
2019-05-29T12:01:49.611Z,3.30
2019-05-29T12:04:25.425Z,8.70
2019-05-29T12:06:53.679Z,5.87
2019-05-29T12:09:33.439Z,6.43
2019-05-29T12:12:09.585Z,3.73
2019-05-29T12:15:00.607Z,4.90
2019-05-29T12:17:26.130Z,5.47
2019-05-29T12:20:23.860Z,3.63
2019-05-29T12:23:10.792Z,4.43
2019-05-29T12:25:23.755Z,5.77
2019-05-29T12:28:01.351Z,2.97
2019-05-29T12:30:38.575Z,3.97
2019-05-29T12:33:15.673Z,4.37
2019-05-29T12:35:52.932Z,4.43
2019-05-29T12:38:29.995Z,3.07
2019-05-29T12:41:07.153Z,2.87
2019-05-29T12:43:44.326Z,2.43
2019-05-29T12:46:22.261Z,4.97
2019-05-29T12:49:01.723Z,5.50
2019-05-29T12:51:40.187Z,5.90
2019-05-29T12:54:20.007Z,2.53
2019-05-29T12:56:57.816Z,3.17
2019-05-29T12:59:35.194Z,5.33
2019-05-29T13:02:15.471Z,8.13
2019-05-29T13:05:16.319Z,4.77
2019-05-29T13:07:33.085Z,6.17
2019-05-29T13:10:10.718Z,3.37
2019-05-29T13:12:48.169Z,4.07
2019-05-29T13:15:25.802Z,4.97
2019-05-29T13:18:09.121Z,5.13
2019-05-29T13:20:41.669Z,3.73
2019-05-29T13:23:18.820Z,5.73
2019-05-29T13:25:55.946Z,4.40
2019-05-29T13:28:33.006Z,4.07
2019-05-29T13:31:10.124Z,6.97
2019-05-29T13:33:47.238Z,4.73
2019-05-29T13:36:24.392Z,3.83
2019-05-29T13:39:02.396Z,5.40
2019-05-29T13:41:39.427Z,3.00
2019-05-29T13:44:16.493Z,3.40
2019-05-29T13:46:53.599Z,4.13
2019-05-29T13:49:30.747Z,7.07
2019-05-29T13:52:11.774Z,4.67
2019-05-29T13:54:47.678Z,5.53
2019-05-29T13:57:24.806Z,4.70
2019-05-29T14:00:30.344Z,5.80
2019-05-29T14:02:49.332Z,7.17
2019-05-29T14:05:26.460Z,4.60
2019-05-29T14:08:04.806Z,5.10
2019-05-29T14:10:42.025Z,5.00
2019-05-29T14:13:20.834Z,5.23
2019-05-29T14:15:57.918Z,2.63
2019-05-29T14:18:35.065Z,3.57
2019-05-29T14:21:13.520Z,2.97
2019-05-29T14:23:50.750Z,2.60
2019-05-29T14:26:27.911Z,5.07
2019-05-29T14:29:05.999Z,2.70
2019-05-29T14:31:43.880Z,4.10
2019-05-29T14:34:21.026Z,3.60
2019-05-29T14:36:58.199Z,6.83
2019-05-29T14:39:36.319Z,4.50
2019-05-29T14:42:13.435Z,5.60
2019-05-29T14:44:50.556Z,6.20
2019-05-29T14:47:27.680Z,3.27
2019-05-29T14:50:08.836Z,4.23
2019-05-29T14:52:46.292Z,4.20
2019-05-29T14:55:23.407Z,3.70
2019-05-29T14:58:00.446Z,2.27
2019-05-29T15:00:37.655Z,3.80
2019-05-29T15:03:14.758Z,3.60
2019-05-29T15:05:52.574Z,4.03
2019-05-29T15:08:29.711Z,5.23
2019-05-29T15:11:08.105Z,5.33
2019-05-29T15:13:45.223Z,2.80
2019-05-29T15:16:22.378Z,5.07
2019-05-29T15:18:59.491Z,4.70
2019-05-29T15:21:37.800Z,6.23
2019-05-29T15:24:17.354Z,4.23
2019-05-29T15:26:58.313Z,5.80
2019-05-29T15:29:35.481Z,4.33
2019-05-29T15:32:12.663Z,2.20
2019-05-29T15:34:49.833Z,5.27
2019-05-29T15:37:26.941Z,5.00
2019-05-29T15:40:08.761Z,3.10
2019-05-29T15:42:46.156Z,12.53
2019-05-29T15:45:23.410Z,6.30
2019-05-29T15:48:02.102Z,6.80
2019-05-29T15:50:39.305Z,4.03
2019-05-29T15:53:18.387Z,3.20
2019-05-29T15:56:16.465Z,5.90
2019-05-29T15:58:37.224Z,5.17
2019-05-29T16:01:15.651Z,5.17
2019-05-29T16:03:52.983Z,4.20
2019-05-29T16:06:32.475Z,6.40
2019-05-29T16:09:10.200Z,3.70
2019-05-29T16:11:47.484Z,4.83
2019-05-29T16:14:24.638Z,3.53
2019-05-29T16:17:01.760Z,5.10
2019-05-29T16:19:38.946Z,9.77
2019-05-29T16:22:19.033Z,5.10
2019-05-29T16:24:57.013Z,5.90
2019-05-29T16:27:34.174Z,5.40
2019-05-29T16:30:11.634Z,5.20
2019-05-29T16:32:48.731Z,7.13
2019-05-29T16:35:28.135Z,4.40
2019-05-29T16:38:05.680Z,5.70
2019-05-29T16:40:42.823Z,4.43
2019-05-29T16:43:20.164Z,4.70
2019-05-29T16:45:57.405Z,3.37
2019-05-29T16:48:34.500Z,3.60
2019-05-29T16:51:12.565Z,4.67
2019-05-29T16:53:50.758Z,5.93
2019-05-29T16:56:27.945Z,6.13
2019-05-29T16:59:05.055Z,3.53
2019-05-29T17:01:42.180Z,3.47
2019-05-29T17:04:21.713Z,4.40
2019-05-29T17:06:58.867Z,4.87
2019-05-29T17:09:36.410Z,5.07
2019-05-29T17:12:14.314Z,4.70
2019-05-29T17:14:51.492Z,4.17
2019-05-29T17:17:30.542Z,4.90
2019-05-29T17:20:08.379Z,4.40
2019-05-29T17:22:45.551Z,8.03
2019-05-29T17:25:26.440Z,6.70
2019-05-29T17:28:01.478Z,4.60
2019-05-29T17:30:38.599Z,9.50
2019-05-29T17:33:16.893Z,4.83
2019-05-29T17:35:54.245Z,5.90
2019-05-29T17:38:31.431Z,4.67
2019-05-29T17:41:15.714Z,5.30
2019-05-29T17:43:53.519Z,3.37
2019-05-29T17:46:30.674Z,2.77
2019-05-29T17:49:07.855Z,15.23
2019-05-29T17:51:44.971Z,6.43
2019-05-29T17:54:22.102Z,3.63
2019-05-29T17:56:59.272Z,3.83
2019-05-29T17:59:36.409Z,2.87
2019-05-29T18:02:13.536Z,8.63
2019-05-29T18:04:50.973Z,3.43
2019-05-29T18:07:28.131Z,9.70
2019-05-29T18:10:08.112Z,12.10
2019-05-29T18:12:45.256Z,10.17
2019-05-29T18:15:23.601Z,8.67
2019-05-29T18:18:02.650Z,6.97
2019-05-29T18:20:39.808Z,8.30
2019-05-29T18:23:17.530Z,5.37
2019-05-29T18:25:54.776Z,5.53
2019-05-29T18:28:31.963Z,5.07
2019-05-29T18:31:09.195Z,6.97
2019-05-29T18:33:48.655Z,9.60
2019-05-29T18:36:29.707Z,12.97
2019-05-29T18:39:07.887Z,34.00
2019-05-29T18:41:45.028Z,8.23
2019-05-29T18:44:22.816Z,9.17
2019-05-29T18:47:00.195Z,8.50
2019-05-29T18:49:37.367Z,9.33
2019-05-29T18:52:14.522Z,6.93
2019-05-29T18:54:53.351Z,7.77
2019-05-29T18:57:30.924Z,9.03
2019-05-29T19:00:08.579Z,10.23
2019-05-29T19:02:49.092Z,13.03
2019-05-29T19:05:27.730Z,15.47
2019-05-29T19:08:04.919Z,10.03
2019-05-29T19:10:42.060Z,8.20
2019-05-29T19:13:19.215Z,8.87
2019-05-29T19:15:56.404Z,10.23
2019-05-29T19:18:43.185Z,8.50
2019-05-29T19:21:20.442Z,10.13
2019-05-29T19:23:59.209Z,9.20
2019-05-29T19:26:36.915Z,13.83
2019-05-29T19:29:14.249Z,13.70
2019-05-29T19:31:51.412Z,10.37
2019-05-29T19:34:29.436Z,14.43
2019-05-29T19:37:06.627Z,11.30
2019-05-29T19:39:45.038Z,14.33
2019-05-29T19:42:22.223Z,9.93
2019-05-29T19:44:59.518Z,13.47
2019-05-29T19:47:36.676Z,10.80
2019-05-29T19:50:13.880Z,11.37
2019-05-29T19:52:50.998Z,10.17
2019-05-29T19:55:31.734Z,10.30
2019-05-29T19:58:07.032Z,7.20
2019-05-29T20:00:44.288Z,10.73
2019-05-29T20:03:21.470Z,13.47
2019-05-29T20:06:04.927Z,12.73
2019-05-29T20:08:42.030Z,8.87
2019-05-29T20:11:19.191Z,10.23
2019-05-29T20:13:57.365Z,6.87
2019-05-29T20:16:34.596Z,9.27
2019-05-29T20:19:11.726Z,12.27
2019-05-29T20:21:48.886Z,10.27
2019-05-29T20:24:26.844Z,10.17
2019-05-29T20:27:04.066Z,12.10
2019-05-29T20:29:42.709Z,11.10
2019-05-29T20:32:19.990Z,9.73
2019-05-29T20:34:57.854Z,10.33
2019-05-29T20:37:36.146Z,7.83
2019-05-29T20:40:14.440Z,15.57
2019-05-29T20:42:51.780Z,12.57
2019-05-29T20:45:31.371Z,9.70
2019-05-29T20:48:09.811Z,11.63
2019-05-29T20:50:48.146Z,12.37
2019-05-29T20:53:25.315Z,10.10
2019-05-29T20:56:02.468Z,12.77
2019-05-29T20:58:39.949Z,14.63
2019-05-29T21:01:17.091Z,10.93
2019-05-29T21:03:54.242Z,12.67
2019-05-29T21:06:32.411Z,11.97
2019-05-29T21:09:09.618Z,15.80
2019-05-29T21:11:46.767Z,13.83
2019-05-29T21:14:23.966Z,7.30
2019-05-29T21:17:01.140Z,11.90
2019-05-29T21:19:38.321Z,10.97
2019-05-29T21:22:15.545Z,12.10
2019-05-29T21:25:02.451Z,7.43
2019-05-29T21:27:32.882Z,13.73
2019-05-29T21:30:10.884Z,11.67
2019-05-29T21:32:51.345Z,6.77
2019-05-29T21:35:31.063Z,11.73
2019-05-29T21:38:10.415Z,9.97
2019-05-29T21:40:52.812Z,9.60
2019-05-29T21:43:30.282Z,8.83
2019-05-29T21:46:09.080Z,12.37
2019-05-29T21:48:47.561Z,14.10
2019-05-29T21:51:25.267Z,13.47
2019-05-29T21:54:05.178Z,8.70
2019-05-29T21:56:45.737Z,13.23
2019-05-29T21:59:23.912Z,9.90
2019-05-29T22:02:02.573Z,11.53
2019-05-29T22:04:42.609Z,8.30
2019-05-29T22:07:20.878Z,8.20
2019-05-29T22:09:58.928Z,10.20
2019-05-29T22:12:39.295Z,7.57
2019-05-29T22:15:16.930Z,7.63
2019-05-29T22:17:54.948Z,14.80
2019-05-29T22:20:32.158Z,9.17
2019-05-29T22:23:09.298Z,8.20
2019-05-29T22:25:46.486Z,9.37
2019-05-29T22:28:23.666Z,10.10
2019-05-29T22:31:01.684Z,11.50
2019-05-29T22:33:38.772Z,10.90
2019-05-29T22:36:15.906Z,11.57
2019-05-29T22:38:53.434Z,9.27
2019-05-29T22:41:30.719Z,9.57
2019-05-29T22:44:08.456Z,9.23
2019-05-29T22:46:45.603Z,10.47
2019-05-29T22:49:22.716Z,16.77
2019-05-29T22:51:59.961Z,14.83
2019-05-29T22:54:37.024Z,9.27
2019-05-29T22:57:14.186Z,12.70
2019-05-29T22:59:51.846Z,10.47
2019-05-29T23:02:29.248Z,14.67
2019-05-29T23:05:07.215Z,9.57
2019-05-29T23:07:44.361Z,11.53
2019-05-29T23:10:21.448Z,12.07
2019-05-29T23:13:02.513Z,11.67
2019-05-29T23:15:37.353Z,11.50
2019-05-29T23:18:14.493Z,10.60
2019-05-29T23:20:52.359Z,10.07
2019-05-29T23:23:29.646Z,12.43
2019-05-29T23:26:08.573Z,10.80
2019-05-29T23:28:45.725Z,11.33
2019-05-29T23:31:22.825Z,14.03
2019-05-29T23:34:01.040Z,14.20
2019-05-29T23:36:38.258Z,14.93
2019-05-29T23:39:15.315Z,14.40
2019-05-29T23:41:53.270Z,11.17
2019-05-29T23:44:30.472Z,11.43
2019-05-29T23:47:07.582Z,11.43
2019-05-29T23:49:44.708Z,15.57
2019-05-29T23:52:21.814Z,13.47
2019-05-29T23:54:59.862Z,13.67
2019-05-29T23:57:37.171Z,12.97
